Time,TemperatureF,DewpointF,PressureIn,WindDirection,WindDirectionDegrees,WindSpeedMPH,WindSpeedGustMPH,Humidity,HourlyPrecipIn,Conditions,Clouds,dailyrainin,SoftwareType,DateUTC
2013-02-11 00:00:00,42.2,35.8,30.07,WNW,297,0.0,0.0,78,0.00,,,0.00,Wunderground v.1.15,2013-02-11 08:00:00,
2013-02-11 00:14:00,42.3,35.9,30.07,WNW,297,0.0,0.0,78,0.00,,,0.00,Wunderground v.1.15,2013-02-11 08:14:00,
2013-02-11 00:20:00,42.0,35.3,30.07,NE,41,0.0,3.0,77,0.00,,,0.00,Wunderground v.1.15,2013-02-11 08:20:00,
2013-02-11 00:34:00,41.0,35.0,30.07,ENE,71,0.0,1.0,79,0.00,,,0.00,Wunderground v.1.15,2013-02-11 08:34:00,
2013-02-11 00:40:00,40.8,35.1,30.08,ENE,67,0.0,0.0,80,0.00,,,0.00,Wunderground v.1.15,2013-02-11 08:40:00,
2013-02-11 00:55:00,40.2,34.5,30.08,ENE,67,0.0,0.0,80,0.00,,,0.00,Wunderground v.1.15,2013-02-11 08:55:00,
2013-02-11 01:04:00,40.2,34.8,30.08,ENE,70,0.0,0.0,81,0.00,,,0.00,Wunderground v.1.15,2013-02-11 09:04:00,
2013-02-11 01:15:00,39.9,34.5,30.08,ENE,70,0.0,0.0,81,0.00,,,0.00,Wunderground v.1.15,2013-02-11 09:15:00,
2013-02-11 01:25:00,38.9,33.9,30.08,SSW,208,0.0,0.0,82,0.00,,,0.00,Wunderground v.1.15,2013-02-11 09:25:00,
2013-02-11 01:34:00,39.5,34.8,30.08,SSW,208,0.0,0.0,83,0.00,,,0.00,Wunderground v.1.15,2013-02-11 09:34:00,
2013-02-11 01:50:00,39.9,34.9,30.08,SSW,208,0.0,0.0,82,0.00,,,0.00,Wunderground v.1.15,2013-02-11 09:50:00,
2013-02-11 02:14:00,40.1,34.7,30.09,NNW,331,0.0,0.0,81,0.00,,,0.00,Wunderground v.1.15,2013-02-11 10:14:00,
2013-02-11 02:25:00,38.9,33.9,30.09,NNW,331,0.0,0.0,82,0.00,,,0.00,Wunderground v.1.15,2013-02-11 10:25:00,
2013-02-11 02:34:00,38.3,33.6,30.09,NNW,331,0.0,1.0,83,0.00,,,0.00,Wunderground v.1.15,2013-02-11 10:34:00,
2013-02-11 02:55:00,38.9,34.8,30.09,NNW,331,0.0,0.0,85,0.00,,,0.00,Wunderground v.1.15,2013-02-11 10:55:00,
2013-02-11 03:00:00,40.2,35.1,30.09,NNW,331,0.0,0.0,82,0.00,,,0.00,Wunderground v.1.15,2013-02-11 11:00:00,
2013-02-11 03:05:00,40.6,34.6,30.09,NNW,331,0.0,0.0,79,0.00,,,0.00,Wunderground v.1.15,2013-02-11 11:05:00,
2013-02-11 03:15:00,40.5,34.2,30.09,NE,41,0.0,0.0,78,0.00,,,0.00,Wunderground v.1.15,2013-02-11 11:15:00,
2013-02-11 03:25:00,39.8,34.4,30.08,East,87,0.0,0.0,81,0.00,,,0.00,Wunderground v.1.15,2013-02-11 11:25:00,
2013-02-11 03:30:00,39.6,34.6,30.08,NNE,19,0.0,2.0,82,0.00,,,0.00,Wunderground v.1.15,2013-02-11 11:30:00,
2013-02-11 03:35:00,39.1,34.1,30.08,NE,42,0.0,2.0,82,0.00,,,0.00,Wunderground v.1.15,2013-02-11 11:35:00,
2013-02-11 03:44:00,38.4,34.0,30.08,SE,137,1.0,4.0,84,0.00,,,0.00,Wunderground v.1.15,2013-02-11 11:44:00,
2013-02-11 03:55:00,38.0,33.3,30.09,NNW,344,2.0,2.0,83,0.00,,,0.00,Wunderground v.1.15,2013-02-11 11:55:00,
2013-02-11 04:00:00,37.6,33.2,30.09,NNW,344,0.0,0.0,84,0.00,,,0.00,Wunderground v.1.15,2013-02-11 12:00:00,
2013-02-11 04:15:00,36.2,32.4,30.09,NW,321,0.0,0.0,86,0.00,,,0.00,Wunderground v.1.15,2013-02-11 12:15:00,
2013-02-11 04:20:00,36.2,32.7,30.10,NW,321,0.0,0.0,87,0.00,,,0.00,Wunderground v.1.15,2013-02-11 12:20:00,
2013-02-11 04:30:00,36.5,33.6,30.10,NW,321,0.0,1.0,89,0.00,,,0.00,Wunderground v.1.15,2013-02-11 12:30:00,
2013-02-11 04:40:00,37.1,33.6,30.10,SSW,196,1.0,1.0,87,0.00,,,0.00,Wunderground v.1.15,2013-02-11 12:40:00,
2013-02-11 04:50:00,38.0,33.6,30.10,SSW,196,0.0,0.0,84,0.00,,,0.00,Wunderground v.1.15,2013-02-11 12:50:00,
2013-02-11 05:00:00,39.3,33.0,30.10,SSW,196,0.0,0.0,78,0.00,,,0.00,Wunderground v.1.15,2013-02-11 13:00:00,
2013-02-11 05:15:00,40.0,32.7,30.11,NNW,342,0.0,0.0,75,0.00,,,0.00,Wunderground v.1.15,2013-02-11 13:15:00,
2013-02-11 05:20:00,39.6,32.7,30.11,NNW,342,0.0,0.0,76,0.00,,,0.00,Wunderground v.1.15,2013-02-11 13:20:00,
2013-02-11 05:30:00,38.5,32.6,30.11,North,350,0.0,0.0,79,0.00,,,0.00,Wunderground v.1.15,2013-02-11 13:30:00,
2013-02-11 05:40:00,37.5,31.9,30.11,East,101,0.0,1.0,80,0.00,,,0.00,Wunderground v.1.15,2013-02-11 13:40:00,
2013-02-11 05:55:00,36.9,31.6,30.12,South,185,1.0,1.0,81,0.00,,,0.00,Wunderground v.1.15,2013-02-11 13:55:00,
2013-02-11 06:05:00,35.7,31.0,30.12,NNE,30,0.0,0.0,83,0.00,,,0.00,Wunderground v.1.15,2013-02-11 14:05:00,
2013-02-11 06:15:00,36.1,31.1,30.12,NE,38,0.0,0.0,82,0.00,,,0.00,Wunderground v.1.15,2013-02-11 14:15:00,
2013-02-11 06:25:00,36.2,30.9,30.13,SE,132,0.0,0.0,81,0.00,,,0.00,Wunderground v.1.15,2013-02-11 14:25:00,
2013-02-11 06:35:00,36.4,30.2,30.13,SE,132,0.0,0.0,78,0.00,,,0.00,Wunderground v.1.15,2013-02-11 14:35:00,
2013-02-11 06:44:00,36.8,31.8,30.14,SE,132,0.0,0.0,82,0.00,,,0.00,Wunderground v.1.15,2013-02-11 14:44:00,
2013-02-11 06:54:00,36.4,32.0,30.14,NW,307,0.0,0.0,84,0.00,,,0.00,Wunderground v.1.15,2013-02-11 14:54:00,
2013-02-11 07:00:00,35.9,31.5,30.15,NW,307,0.0,0.0,84,0.00,,,0.00,Wunderground v.1.15,2013-02-11 15:00:00,
2013-02-11 07:10:00,35.9,30.9,30.15,SE,142,0.0,0.0,82,0.00,,,0.00,Wunderground v.1.15,2013-02-11 15:10:00,
2013-02-11 07:19:00,39.1,29.8,30.15,SE,126,0.0,2.0,69,0.00,,,0.00,Wunderground v.1.15,2013-02-11 15:19:00,
2013-02-11 07:25:00,40.7,29.5,30.15,SSE,161,0.0,2.0,64,0.00,,,0.00,Wunderground v.1.15,2013-02-11 15:25:00,
2013-02-11 07:35:00,40.9,29.3,30.16,SSE,159,0.0,5.0,63,0.00,,,0.00,Wunderground v.1.15,2013-02-11 15:35:00,
2013-02-11 07:44:00,39.4,31.1,30.16,SSE,159,1.0,1.0,72,0.00,,,0.00,Wunderground v.1.15,2013-02-11 15:44:00,
2013-02-11 07:50:00,38.7,31.1,30.16,SSE,159,0.0,0.0,74,0.00,,,0.00,Wunderground v.1.15,2013-02-11 15:50:00,
2013-02-11 07:55:00,38.7,31.8,30.17,SSE,159,0.0,0.0,76,0.00,,,0.00,Wunderground v.1.15,2013-02-11 15:55:00,
2013-02-11 08:00:00,39.4,31.5,30.17,SSE,159,0.0,0.0,73,0.00,,,0.00,Wunderground v.1.15,2013-02-11 16:00:00,
2013-02-11 08:10:00,41.8,30.9,30.17,ESE,107,0.0,0.0,65,0.00,,,0.00,Wunderground v.1.15,2013-02-11 16:10:00,
2013-02-11 08:25:00,46.7,30.5,30.17,SSE,151,2.0,4.0,53,0.00,,,0.00,Wunderground v.1.15,2013-02-11 16:25:00,
2013-02-11 08:30:00,47.4,29.7,30.18,SSW,204,2.0,3.0,50,0.00,,,0.00,Wunderground v.1.15,2013-02-11 16:30:00,
2013-02-11 08:40:00,47.9,31.1,30.18,East,88,1.0,1.0,52,0.00,,,0.00,Wunderground v.1.15,2013-02-11 16:40:00,
2013-02-11 09:00:00,47.7,33.2,30.18,East,88,1.0,1.0,57,0.00,,,0.00,Wunderground v.1.15,2013-02-11 17:00:00,
2013-02-11 09:05:00,48.6,32.7,30.18,SSE,152,2.0,2.0,54,0.00,,,0.00,Wunderground v.1.15,2013-02-11 17:05:00,
2013-02-11 09:10:00,48.8,30.5,30.18,SSE,159,3.0,4.0,49,0.00,,,0.00,Wunderground v.1.15,2013-02-11 17:10:00,
2013-02-11 09:20:00,49.6,31.7,30.18,SE,130,2.0,2.0,50,0.00,,,0.00,Wunderground v.1.15,2013-02-11 17:20:00,
2013-02-11 09:30:00,50.1,30.1,30.19,ESE,107,2.0,2.0,46,0.00,,,0.00,Wunderground v.1.15,2013-02-11 17:30:00,
2013-02-11 09:40:00,51.0,31.5,30.19,East,87,2.0,2.0,47,0.00,,,0.00,Wunderground v.1.15,2013-02-11 17:40:00,
2013-02-11 09:45:00,51.2,31.1,30.19,East,89,1.0,2.0,46,0.00,,,0.00,Wunderground v.1.15,2013-02-11 17:45:00,
2013-02-11 09:50:00,51.5,30.3,30.19,North,360,1.0,1.0,44,0.00,,,0.00,Wunderground v.1.15,2013-02-11 17:50:00,
2013-02-11 10:00:00,52.1,30.3,30.19,ESE,111,1.0,1.0,43,0.00,,,0.00,Wunderground v.1.15,2013-02-11 18:00:00,
2013-02-11 10:10:00,53.0,31.6,30.20,ESE,117,1.0,1.0,44,0.00,,,0.00,Wunderground v.1.15,2013-02-11 18:10:00,
2013-02-11 10:20:00,53.2,29.5,30.20,East,86,1.0,1.0,40,0.00,,,0.00,Wunderground v.1.15,2013-02-11 18:20:00,
2013-02-11 10:25:00,53.3,31.4,30.20,ESE,114,1.0,1.0,43,0.00,,,0.00,Wunderground v.1.15,2013-02-11 18:25:00,
2013-02-11 10:35:00,54.2,30.4,30.20,ESE,102,2.0,4.0,40,0.00,,,0.00,Wunderground v.1.15,2013-02-11 18:35:00,
2013-02-11 10:44:00,54.8,29.7,30.20,ENE,67,1.0,4.0,38,0.00,,,0.00,Wunderground v.1.15,2013-02-11 18:44:00,
2013-02-11 10:50:00,55.0,29.8,30.20,NE,47,2.0,2.0,38,0.00,,,0.00,Wunderground v.1.15,2013-02-11 18:50:00,
2013-02-11 10:59:00,55.7,29.8,30.20,ENE,60,1.0,1.0,37,0.00,,,0.00,Wunderground v.1.15,2013-02-11 18:59:00,
2013-02-11 11:15:00,57.3,30.5,30.20,North,11,0.0,0.0,36,0.00,,,0.00,Wunderground v.1.15,2013-02-11 19:15:00,
2013-02-11 11:24:00,58.1,29.8,30.20,South,169,0.0,2.0,34,0.00,,,0.00,Wunderground v.1.15,2013-02-11 19:24:00,
2013-02-11 11:29:00,57.6,30.1,30.20,SSE,147,1.0,2.0,35,0.00,,,0.00,Wunderground v.1.15,2013-02-11 19:29:00,
2013-02-11 11:39:00,56.3,30.3,30.20,SW,214,1.0,1.0,37,0.00,,,0.00,Wunderground v.1.15,2013-02-11 19:39:00,
2013-02-11 11:45:00,56.1,29.5,30.19,SW,215,1.0,1.0,36,0.00,,,0.00,Wunderground v.1.15,2013-02-11 19:45:00,
2013-02-11 11:50:00,56.9,31.5,30.19,ESE,122,1.0,1.0,38,0.00,,,0.00,Wunderground v.1.15,2013-02-11 19:50:00,
2013-02-11 12:00:00,57.7,30.9,30.18,SSE,167,1.0,4.0,36,0.00,,,0.00,Wunderground v.1.15,2013-02-11 20:00:00,
2013-02-11 12:05:00,57.8,29.6,30.18,SSE,155,1.0,4.0,34,0.00,,,0.00,Wunderground v.1.15,2013-02-11 20:05:00,
2013-02-11 12:15:00,58.5,28.7,30.18,East,84,0.0,1.0,32,0.00,,,0.00,Wunderground v.1.15,2013-02-11 20:15:00,
2013-02-11 12:25:00,58.9,29.8,30.18,SSW,213,1.0,3.0,33,0.00,,,0.00,Wunderground v.1.15,2013-02-11 20:25:00,
2013-02-11 12:40:00,60.1,28.5,30.17,North,349,1.0,4.0,30,0.00,,,0.00,Wunderground v.1.15,2013-02-11 20:40:00,
2013-02-11 12:55:00,60.7,27.4,30.17,ENE,67,2.0,2.0,28,0.00,,,0.00,Wunderground v.1.15,2013-02-11 20:55:00,
2013-02-11 13:10:00,61.4,28.8,30.17,ESE,110,1.0,1.0,29,0.00,,,0.00,Wunderground v.1.15,2013-02-11 21:10:00,
2013-02-11 13:35:00,61.7,29.1,30.16,ENE,78,2.0,4.0,29,0.00,,,0.00,Wunderground v.1.15,2013-02-11 21:35:00,
2013-02-11 13:45:00,61.3,25.1,30.16,North,355,4.0,7.0,25,0.00,,,0.00,Wunderground v.1.15,2013-02-11 21:45:00,
2013-02-11 14:15:00,61.6,29.0,30.16,ENE,72,3.0,3.0,29,0.00,,,0.00,Wunderground v.1.15,2013-02-11 22:15:00,
2013-02-11 14:20:00,61.6,28.1,30.16,East,90,3.0,3.0,28,0.00,,,0.00,Wunderground v.1.15,2013-02-11 22:20:00,
2013-02-11 14:35:00,61.3,29.6,30.15,ESE,111,2.0,4.0,30,0.00,,,0.00,Wunderground v.1.15,2013-02-11 22:35:00,
2013-02-11 14:45:00,61.6,28.1,30.16,East,87,3.0,5.0,28,0.00,,,0.00,Wunderground v.1.15,2013-02-11 22:45:00,
2013-02-11 14:50:00,61.3,28.7,30.16,North,360,3.0,3.0,29,0.00,,,0.00,Wunderground v.1.15,2013-02-11 22:50:00,
2013-02-11 15:00:00,61.5,29.7,30.16,NE,50,2.0,2.0,30,0.00,,,0.00,Wunderground v.1.15,2013-02-11 23:00:00,
2013-02-11 15:25:00,61.1,29.4,30.16,South,169,2.0,2.0,30,0.00,,,0.00,Wunderground v.1.15,2013-02-11 23:25:00,
2013-02-11 15:35:00,61.4,28.8,30.16,East,87,1.0,1.0,29,0.00,,,0.00,Wunderground v.1.15,2013-02-11 23:35:00,
2013-02-11 15:40:00,61.4,28.8,30.16,East,81,2.0,2.0,29,0.00,,,0.00,Wunderground v.1.15,2013-02-11 23:40:00,
2013-02-11 15:50:00,60.9,29.2,30.15,East,95,2.0,4.0,30,0.00,,,0.00,Wunderground v.1.15,2013-02-11 23:50:00,
2013-02-11 16:05:00,59.7,29.8,30.16,ESE,118,3.0,3.0,32,0.00,,,0.00,Wunderground v.1.15,2013-02-12 00:05:00,
2013-02-11 16:14:00,59.6,28.9,30.16,ESE,121,1.0,2.0,31,0.00,,,0.00,Wunderground v.1.15,2013-02-12 00:14:00,
2013-02-11 16:20:00,59.4,30.3,30.16,ENE,57,2.0,3.0,33,0.00,,,0.00,Wunderground v.1.15,2013-02-12 00:20:00,
2013-02-11 16:30:00,59.3,30.2,30.15,ESE,103,1.0,1.0,33,0.00,,,0.00,Wunderground v.1.15,2013-02-12 00:30:00,
2013-02-11 16:45:00,59.3,30.2,30.16,ESE,103,0.0,0.0,33,0.00,,,0.00,Wunderground v.1.15,2013-02-12 00:45:00,
2013-02-11 16:55:00,59.4,30.3,30.16,ENE,64,0.0,1.0,33,0.00,,,0.00,Wunderground v.1.15,2013-02-12 00:55:00,
2013-02-11 17:00:00,59.1,30.7,30.16,ENE,64,0.0,1.0,34,0.00,,,0.00,Wunderground v.1.15,2013-02-12 01:00:00,
2013-02-11 17:10:00,58.4,30.8,30.16,ENE,67,0.0,0.0,35,0.00,,,0.00,Wunderground v.1.15,2013-02-12 01:10:00,
2013-02-11 17:20:00,57.8,30.3,30.16,ENE,71,1.0,1.0,35,0.00,,,0.00,Wunderground v.1.15,2013-02-12 01:20:00,
2013-02-11 17:55:00,55.4,29.5,30.17,SSE,150,0.0,0.0,37,0.00,,,0.00,Wunderground v.1.15,2013-02-12 01:55:00,
2013-02-11 18:00:00,55.0,30.5,30.17,SSE,150,0.0,0.0,39,0.00,,,0.00,Wunderground v.1.15,2013-02-12 02:00:00,
2013-02-11 18:14:00,52.3,30.4,30.18,SSE,150,0.0,0.0,43,0.00,,,0.00,Wunderground v.1.15,2013-02-12 02:14:00,
2013-02-11 18:25:00,50.7,30.7,30.18,SSE,150,0.0,0.0,46,0.00,,,0.00,Wunderground v.1.15,2013-02-12 02:25:00,
2013-02-11 18:34:00,50.9,29.7,30.18,SSE,150,0.0,0.0,44,0.00,,,0.00,Wunderground v.1.15,2013-02-12 02:34:00,
2013-02-11 18:40:00,50.9,29.7,30.18,SSE,150,0.0,0.0,44,0.00,,,0.00,Wunderground v.1.15,2013-02-12 02:40:00,
2013-02-11 18:50:00,51.4,29.1,30.19,SSE,150,0.0,0.0,42,0.00,,,0.00,Wunderground v.1.15,2013-02-12 02:50:00,
2013-02-11 19:00:00,53.1,30.0,30.19,ESE,102,0.0,0.0,41,0.00,,,0.00,Wunderground v.1.15,2013-02-12 03:00:00,
2013-02-11 19:05:00,52.6,29.5,30.19,ESE,102,0.0,0.0,41,0.00,,,0.00,Wunderground v.1.15,2013-02-12 03:05:00,
2013-02-11 19:15:00,51.8,28.8,30.19,ESE,102,0.0,0.0,41,0.00,,,0.00,Wunderground v.1.15,2013-02-12 03:15:00,
2013-02-11 19:49:00,50.1,28.4,30.19,ESE,102,0.0,0.0,43,0.00,,,0.00,Wunderground v.1.15,2013-02-12 03:49:00,
2013-02-11 19:55:00,49.9,28.8,30.20,ESE,102,0.0,0.0,44,0.00,,,0.00,Wunderground v.1.15,2013-02-12 03:55:00,
2013-02-11 20:00:00,49.7,28.6,30.20,ESE,102,0.0,0.0,44,0.00,,,0.00,Wunderground v.1.15,2013-02-12 04:00:00,
2013-02-11 20:10:00,49.9,28.8,30.20,ESE,102,0.0,0.0,44,0.00,,,0.00,Wunderground v.1.15,2013-02-12 04:10:00,
2013-02-11 20:20:00,49.6,29.6,30.20,ESE,102,0.0,0.0,46,0.00,,,0.00,Wunderground v.1.15,2013-02-12 04:20:00,
2013-02-11 20:35:00,48.8,30.5,30.21,ESE,102,0.0,0.0,49,0.00,,,0.00,Wunderground v.1.15,2013-02-12 04:35:00,
2013-02-11 20:45:00,47.8,31.0,30.21,ESE,102,0.0,0.0,52,0.00,,,0.00,Wunderground v.1.15,2013-02-12 04:45:00,
2013-02-11 20:55:00,47.3,30.5,30.22,ESE,102,0.0,0.0,52,0.00,,,0.00,Wunderground v.1.15,2013-02-12 04:55:00,
2013-02-11 21:05:00,47.2,30.9,30.22,ESE,102,0.0,0.0,53,0.00,,,0.00,Wunderground v.1.15,2013-02-12 05:05:00,
2013-02-11 21:10:00,47.0,31.2,30.22,ESE,102,0.0,0.0,54,0.00,,,0.00,Wunderground v.1.15,2013-02-12 05:10:00,
2013-02-11 21:20:00,46.7,31.4,30.22,ESE,102,0.0,0.0,55,0.00,,,0.00,Wunderground v.1.15,2013-02-12 05:20:00,
2013-02-11 21:25:00,46.5,31.6,30.22,ESE,102,0.0,0.0,56,0.00,,,0.00,Wunderground v.1.15,2013-02-12 05:25:00,
2013-02-11 21:35:00,45.7,31.8,30.22,ESE,102,0.0,0.0,58,0.00,,,0.00,Wunderground v.1.15,2013-02-12 05:35:00,
2013-02-11 21:40:00,45.6,31.7,30.22,ESE,102,0.0,0.0,58,0.00,,,0.00,Wunderground v.1.15,2013-02-12 05:40:00,
2013-02-11 21:50:00,45.1,31.2,30.22,ESE,102,0.0,0.0,58,0.00,,,0.00,Wunderground v.1.15,2013-02-12 05:50:00,
2013-02-11 22:14:00,44.7,30.8,30.22,ESE,102,0.0,0.0,58,0.00,,,0.00,Wunderground v.1.15,2013-02-12 06:14:00,
2013-02-11 22:20:00,44.5,31.1,30.22,ESE,102,0.0,0.0,59,0.00,,,0.00,Wunderground v.1.15,2013-02-12 06:20:00,
2013-02-11 22:45:00,43.5,30.9,30.22,ESE,102,0.0,0.0,61,0.00,,,0.00,Wunderground v.1.15,2013-02-12 06:45:00,
2013-02-11 22:59:00,43.1,31.0,30.22,ESE,102,0.0,0.0,62,0.00,,,0.00,Wunderground v.1.15,2013-02-12 06:59:00,
2013-02-11 23:10:00,43.0,30.9,30.22,NNW,346,0.0,0.0,62,0.00,,,0.00,Wunderground v.1.15,2013-02-12 07:10:00,
2013-02-11 23:20:00,42.2,31.3,30.22,NNW,346,0.0,0.0,65,0.00,,,0.00,Wunderground v.1.15,2013-02-12 07:20:00,
2013-02-11 23:30:00,41.5,31.4,30.23,NNW,346,0.0,0.0,67,0.00,,,0.00,Wunderground v.1.15,2013-02-12 07:30:00,
2013-02-11 23:40:00,41.4,30.5,30.23,NNW,346,0.0,0.0,65,0.00,,,0.00,Wunderground v.1.15,2013-02-12 07:40:00,